sensor_id;sensor_type;location;lat;lon;timestamp;P1;durP1;ratioP1;P2;durP2;ratioP2
9759;SDS011;4919;48.792;9.202;2022-09-09T00:03:58;10.00;;;9.00;;
9759;SDS011;4919;48.792;9.202;2022-09-09T00:06:32;9.27;;;8.20;;
9759;SDS011;4919;48.792;9.202;2022-09-09T00:09:08;10.20;;;8.97;;
9759;SDS011;4919;48.792;9.202;2022-09-09T00:11:41;10.87;;;9.47;;
9759;SDS011;4919;48.792;9.202;2022-09-09T00:14:18;12.13;;;9.53;;
9759;SDS011;4919;48.792;9.202;2022-09-09T00:16:54;13.20;;;9.80;;
9759;SDS011;4919;48.792;9.202;2022-09-09T00:24:43;11.70;;;9.33;;
9759;SDS011;4919;48.792;9.202;2022-09-09T00:27:34;15.93;;;9.47;;
9759;SDS011;4919;48.792;9.202;2022-09-09T00:32:49;9.90;;;8.90;;
9759;SDS011;4919;48.792;9.202;2022-09-09T00:35:54;12.47;;;9.87;;
9759;SDS011;4919;48.792;9.202;2022-09-09T00:38:17;11.77;;;9.63;;
9759;SDS011;4919;48.792;9.202;2022-09-09T00:43:38;19.60;;;9.77;;
9759;SDS011;4919;48.792;9.202;2022-09-09T00:46:21;11.57;;;10.27;;
9759;SDS011;4919;48.792;9.202;2022-09-09T00:49:04;13.03;;;9.97;;
9759;SDS011;4919;48.792;9.202;2022-09-09T00:54:44;12.67;;;10.20;;
9759;SDS011;4919;48.792;9.202;2022-09-09T00:57:33;14.63;;;9.70;;
9759;SDS011;4919;48.792;9.202;2022-09-09T01:08:35;12.70;;;10.23;;
9759;SDS011;4919;48.792;9.202;2022-09-09T01:11:07;14.50;;;9.70;;
9759;SDS011;4919;48.792;9.202;2022-09-09T01:13:42;13.43;;;9.97;;
9759;SDS011;4919;48.792;9.202;2022-09-09T01:16:13;11.03;;;9.60;;
9759;SDS011;4919;48.792;9.202;2022-09-09T01:18:44;11.77;;;10.00;;
9759;SDS011;4919;48.792;9.202;2022-09-09T01:21:27;15.37;;;9.47;;
9759;SDS011;4919;48.792;9.202;2022-09-09T01:27:07;13.80;;;9.50;;
9759;SDS011;4919;48.792;9.202;2022-09-09T01:29:36;14.53;;;9.60;;
9759;SDS011;4919;48.792;9.202;2022-09-09T01:35:14;13.23;;;10.27;;
9759;SDS011;4919;48.792;9.202;2022-09-09T01:38:02;17.83;;;10.03;;
9759;SDS011;4919;48.792;9.202;2022-09-09T01:40:30;12.73;;;10.17;;
9759;SDS011;4919;48.792;9.202;2022-09-09T01:42:56;11.53;;;9.70;;
9759;SDS011;4919;48.792;9.202;2022-09-09T01:45:24;12.90;;;9.40;;
9759;SDS011;4919;48.792;9.202;2022-09-09T01:47:54;10.30;;;9.20;;
9759;SDS011;4919;48.792;9.202;2022-09-09T01:50:37;27.80;;;10.97;;
9759;SDS011;4919;48.792;9.202;2022-09-09T01:53:05;12.13;;;9.30;;
9759;SDS011;4919;48.792;9.202;2022-09-09T01:55:33;13.90;;;9.83;;
9759;SDS011;4919;48.792;9.202;2022-09-09T01:58:28;11.57;;;9.40;;
9759;SDS011;4919;48.792;9.202;2022-09-09T02:04:04;12.90;;;9.20;;
9759;SDS011;4919;48.792;9.202;2022-09-09T02:06:42;16.93;;;9.50;;
9759;SDS011;4919;48.792;9.202;2022-09-09T02:09:23;11.77;;;9.00;;
9759;SDS011;4919;48.792;9.202;2022-09-09T02:11:54;19.03;;;10.43;;
9759;SDS011;4919;48.792;9.202;2022-09-09T02:14:41;10.10;;;9.00;;
9759;SDS011;4919;48.792;9.202;2022-09-09T02:17:13;14.50;;;10.03;;
9759;SDS011;4919;48.792;9.202;2022-09-09T02:20:10;15.80;;;10.17;;
9759;SDS011;4919;48.792;9.202;2022-09-09T02:22:47;15.43;;;10.17;;
9759;SDS011;4919;48.792;9.202;2022-09-09T02:25:19;14.27;;;10.17;;
9759;SDS011;4919;48.792;9.202;2022-09-09T02:27:51;18.03;;;10.30;;
9759;SDS011;4919;48.792;9.202;2022-09-09T02:30:18;15.07;;;9.53;;
9759;SDS011;4919;48.792;9.202;2022-09-09T02:32:52;11.97;;;9.73;;
9759;SDS011;4919;48.792;9.202;2022-09-09T02:35:33;15.80;;;10.30;;
9759;SDS011;4919;48.792;9.202;2022-09-09T02:38:05;11.73;;;9.40;;
9759;SDS011;4919;48.792;9.202;2022-09-09T02:40:37;16.50;;;9.70;;
9759;SDS011;4919;48.792;9.202;2022-09-09T02:43:04;10.27;;;8.97;;
9759;SDS011;4919;48.792;9.202;2022-09-09T02:46:18;10.87;;;9.20;;
9759;SDS011;4919;48.792;9.202;2022-09-09T02:48:26;19.97;;;9.17;;
9759;SDS011;4919;48.792;9.202;2022-09-09T02:51:18;9.87;;;8.67;;
9759;SDS011;4919;48.792;9.202;2022-09-09T02:54:20;10.87;;;9.10;;
9759;SDS011;4919;48.792;9.202;2022-09-09T02:57:03;13.27;;;9.13;;
9759;SDS011;4919;48.792;9.202;2022-09-09T02:59:37;14.17;;;9.10;;
9759;SDS011;4919;48.792;9.202;2022-09-09T03:02:05;14.70;;;8.90;;
9759;SDS011;4919;48.792;9.202;2022-09-09T03:04:32;12.73;;;9.20;;
9759;SDS011;4919;48.792;9.202;2022-09-09T03:06:59;12.60;;;8.83;;
9759;SDS011;4919;48.792;9.202;2022-09-09T03:09:26;15.70;;;9.77;;
9759;SDS011;4919;48.792;9.202;2022-09-09T03:11:53;13.77;;;9.13;;
9759;SDS011;4919;48.792;9.202;2022-09-09T03:14:22;19.07;;;9.53;;
9759;SDS011;4919;48.792;9.202;2022-09-09T03:16:52;10.30;;;8.47;;
9759;SDS011;4919;48.792;9.202;2022-09-09T03:19:20;15.43;;;9.40;;
9759;SDS011;4919;48.792;9.202;2022-09-09T03:21:48;11.37;;;8.93;;
9759;SDS011;4919;48.792;9.202;2022-09-09T03:24:15;14.23;;;9.20;;
9759;SDS011;4919;48.792;9.202;2022-09-09T03:26:42;14.17;;;9.33;;
9759;SDS011;4919;48.792;9.202;2022-09-09T03:29:14;11.63;;;8.70;;
9759;SDS011;4919;48.792;9.202;2022-09-09T03:31:43;9.87;;;8.40;;
9759;SDS011;4919;48.792;9.202;2022-09-09T03:34:11;12.57;;;9.10;;
9759;SDS011;4919;48.792;9.202;2022-09-09T03:36:37;9.87;;;8.10;;
9759;SDS011;4919;48.792;9.202;2022-09-09T03:39:04;13.67;;;9.23;;
9759;SDS011;4919;48.792;9.202;2022-09-09T03:41:31;15.90;;;9.43;;
9759;SDS011;4919;48.792;9.202;2022-09-09T03:44:00;9.90;;;8.63;;
9759;SDS011;4919;48.792;9.202;2022-09-09T03:46:31;14.30;;;9.13;;
9759;SDS011;4919;48.792;9.202;2022-09-09T03:48:58;14.63;;;8.73;;
9759;SDS011;4919;48.792;9.202;2022-09-09T03:51:26;11.80;;;8.50;;
9759;SDS011;4919;48.792;9.202;2022-09-09T03:53:53;11.83;;;8.03;;
9759;SDS011;4919;48.792;9.202;2022-09-09T03:56:21;11.00;;;8.23;;
9759;SDS011;4919;48.792;9.202;2022-09-09T03:58:48;9.03;;;8.13;;
9759;SDS011;4919;48.792;9.202;2022-09-09T04:01:15;8.07;;;7.20;;
9759;SDS011;4919;48.792;9.202;2022-09-09T04:03:44;10.70;;;7.60;;
9759;SDS011;4919;48.792;9.202;2022-09-09T04:06:12;11.83;;;8.00;;
9759;SDS011;4919;48.792;9.202;2022-09-09T04:08:43;10.90;;;7.37;;
9759;SDS011;4919;48.792;9.202;2022-09-09T04:11:12;8.43;;;7.03;;
9759;SDS011;4919;48.792;9.202;2022-09-09T04:13:42;9.33;;;7.23;;
9759;SDS011;4919;48.792;9.202;2022-09-09T04:16:11;11.90;;;7.60;;
9759;SDS011;4919;48.792;9.202;2022-09-09T04:18:42;10.50;;;7.37;;
9759;SDS011;4919;48.792;9.202;2022-09-09T04:21:09;13.07;;;7.97;;
9759;SDS011;4919;48.792;9.202;2022-09-09T04:23:39;11.67;;;7.30;;
9759;SDS011;4919;48.792;9.202;2022-09-09T04:26:06;9.93;;;8.00;;
9759;SDS011;4919;48.792;9.202;2022-09-09T04:28:34;9.63;;;7.60;;
9759;SDS011;4919;48.792;9.202;2022-09-09T04:31:10;8.57;;;7.13;;
9759;SDS011;4919;48.792;9.202;2022-09-09T04:33:52;9.50;;;7.63;;
9759;SDS011;4919;48.792;9.202;2022-09-09T04:36:20;10.57;;;7.23;;
9759;SDS011;4919;48.792;9.202;2022-09-09T04:38:50;8.43;;;7.60;;
9759;SDS011;4919;48.792;9.202;2022-09-09T04:41:17;9.20;;;6.93;;
9759;SDS011;4919;48.792;9.202;2022-09-09T04:43:47;9.00;;;6.97;;
9759;SDS011;4919;48.792;9.202;2022-09-09T04:46:14;9.80;;;7.33;;
9759;SDS011;4919;48.792;9.202;2022-09-09T04:48:43;7.53;;;5.47;;
9759;SDS011;4919;48.792;9.202;2022-09-09T04:51:11;6.47;;;5.87;;
9759;SDS011;4919;48.792;9.202;2022-09-09T04:53:40;6.50;;;5.50;;
9759;SDS011;4919;48.792;9.202;2022-09-09T04:56:08;7.07;;;5.17;;
9759;SDS011;4919;48.792;9.202;2022-09-09T04:58:43;5.60;;;4.97;;
9759;SDS011;4919;48.792;9.202;2022-09-09T05:01:16;6.47;;;5.47;;
9759;SDS011;4919;48.792;9.202;2022-09-09T05:03:47;5.53;;;5.03;;
9759;SDS011;4919;48.792;9.202;2022-09-09T05:06:18;5.70;;;5.00;;
9759;SDS011;4919;48.792;9.202;2022-09-09T05:08:48;6.33;;;5.20;;
9759;SDS011;4919;48.792;9.202;2022-09-09T05:11:20;5.40;;;4.90;;
9759;SDS011;4919;48.792;9.202;2022-09-09T05:13:54;5.53;;;5.03;;
9759;SDS011;4919;48.792;9.202;2022-09-09T05:16:23;6.10;;;5.50;;
9759;SDS011;4919;48.792;9.202;2022-09-09T05:18:50;5.33;;;4.83;;
9759;SDS011;4919;48.792;9.202;2022-09-09T05:21:18;5.77;;;5.27;;
9759;SDS011;4919;48.792;9.202;2022-09-09T05:23:47;6.00;;;4.87;;
9759;SDS011;4919;48.792;9.202;2022-09-09T05:26:15;6.33;;;5.37;;
9759;SDS011;4919;48.792;9.202;2022-09-09T05:28:46;5.70;;;5.13;;
9759;SDS011;4919;48.792;9.202;2022-09-09T05:31:14;7.30;;;5.47;;
9759;SDS011;4919;48.792;9.202;2022-09-09T05:33:44;4.97;;;4.23;;
9759;SDS011;4919;48.792;9.202;2022-09-09T05:36:14;5.07;;;4.63;;
9759;SDS011;4919;48.792;9.202;2022-09-09T05:38:44;6.43;;;4.63;;
9759;SDS011;4919;48.792;9.202;2022-09-09T05:41:12;4.50;;;4.10;;
9759;SDS011;4919;48.792;9.202;2022-09-09T05:43:42;4.33;;;3.77;;
9759;SDS011;4919;48.792;9.202;2022-09-09T05:46:12;4.20;;;3.60;;
9759;SDS011;4919;48.792;9.202;2022-09-09T05:48:41;4.53;;;3.80;;
9759;SDS011;4919;48.792;9.202;2022-09-09T05:51:10;4.43;;;3.50;;
9759;SDS011;4919;48.792;9.202;2022-09-09T05:53:39;4.27;;;3.20;;
9759;SDS011;4919;48.792;9.202;2022-09-09T05:56:07;4.20;;;2.70;;
9759;SDS011;4919;48.792;9.202;2022-09-09T05:58:38;3.30;;;3.00;;
9759;SDS011;4919;48.792;9.202;2022-09-09T06:01:08;2.80;;;2.60;;
9759;SDS011;4919;48.792;9.202;2022-09-09T06:03:41;3.33;;;2.60;;
9759;SDS011;4919;48.792;9.202;2022-09-09T06:06:11;3.60;;;2.77;;
9759;SDS011;4919;48.792;9.202;2022-09-09T06:08:44;3.47;;;2.90;;
9759;SDS011;4919;48.792;9.202;2022-09-09T06:11:15;3.43;;;3.13;;
9759;SDS011;4919;48.792;9.202;2022-09-09T06:13:44;3.30;;;3.00;;
9759;SDS011;4919;48.792;9.202;2022-09-09T06:16:12;3.00;;;2.70;;
9759;SDS011;4919;48.792;9.202;2022-09-09T06:18:42;3.37;;;2.87;;
9759;SDS011;4919;48.792;9.202;2022-09-09T06:21:17;3.93;;;3.10;;
9759;SDS011;4919;48.792;9.202;2022-09-09T06:23:46;3.17;;;2.87;;
9759;SDS011;4919;48.792;9.202;2022-09-09T06:26:15;3.13;;;2.83;;
9759;SDS011;4919;48.792;9.202;2022-09-09T06:28:53;4.13;;;3.20;;
9759;SDS011;4919;48.792;9.202;2022-09-09T06:31:21;4.07;;;2.93;;
9759;SDS011;4919;48.792;9.202;2022-09-09T06:33:57;3.03;;;2.60;;
9759;SDS011;4919;48.792;9.202;2022-09-09T06:36:26;3.30;;;2.73;;
9759;SDS011;4919;48.792;9.202;2022-09-09T06:38:53;3.67;;;2.77;;
9759;SDS011;4919;48.792;9.202;2022-09-09T06:41:21;4.47;;;2.73;;
9759;SDS011;4919;48.792;9.202;2022-09-09T06:43:48;2.83;;;2.57;;
9759;SDS011;4919;48.792;9.202;2022-09-09T06:46:19;3.70;;;3.03;;
9759;SDS011;4919;48.792;9.202;2022-09-09T06:48:49;2.70;;;2.50;;
9759;SDS011;4919;48.792;9.202;2022-09-09T06:51:18;2.90;;;2.70;;
9759;SDS011;4919;48.792;9.202;2022-09-09T06:53:49;2.70;;;2.50;;
9759;SDS011;4919;48.792;9.202;2022-09-09T06:58:58;3.43;;;3.10;;
9759;SDS011;4919;48.792;9.202;2022-09-09T07:01:34;3.07;;;2.40;;
9759;SDS011;4919;48.792;9.202;2022-09-09T07:04:07;2.80;;;2.60;;
9759;SDS011;4919;48.792;9.202;2022-09-09T07:06:45;2.50;;;2.30;;
9759;SDS011;4919;48.792;9.202;2022-09-09T07:09:20;3.20;;;2.80;;
9759;SDS011;4919;48.792;9.202;2022-09-09T07:11:49;2.97;;;2.47;;
9759;SDS011;4919;48.792;9.202;2022-09-09T07:14:22;3.00;;;2.70;;
9759;SDS011;4919;48.792;9.202;2022-09-09T07:16:55;2.70;;;2.50;;
9759;SDS011;4919;48.792;9.202;2022-09-09T07:19:26;3.27;;;2.63;;
9759;SDS011;4919;48.792;9.202;2022-09-09T07:21:54;3.23;;;2.50;;
9759;SDS011;4919;48.792;9.202;2022-09-09T07:24:23;2.70;;;2.27;;
9759;SDS011;4919;48.792;9.202;2022-09-09T07:26:50;3.03;;;2.73;;
9759;SDS011;4919;48.792;9.202;2022-09-09T07:29:18;2.87;;;2.57;;
9759;SDS011;4919;48.792;9.202;2022-09-09T07:31:47;2.57;;;2.37;;
9759;SDS011;4919;48.792;9.202;2022-09-09T07:34:19;3.67;;;2.70;;
9759;SDS011;4919;48.792;9.202;2022-09-09T07:36:46;2.93;;;2.70;;
9759;SDS011;4919;48.792;9.202;2022-09-09T07:39:15;3.63;;;2.70;;
9759;SDS011;4919;48.792;9.202;2022-09-09T07:41:48;3.53;;;2.30;;
9759;SDS011;4919;48.792;9.202;2022-09-09T07:44:19;2.77;;;2.47;;
9759;SDS011;4919;48.792;9.202;2022-09-09T07:46:53;3.27;;;2.27;;
9759;SDS011;4919;48.792;9.202;2022-09-09T07:49:25;3.40;;;2.40;;
9759;SDS011;4919;48.792;9.202;2022-09-09T07:51:59;2.83;;;2.10;;
9759;SDS011;4919;48.792;9.202;2022-09-09T07:54:26;2.33;;;1.97;;
9759;SDS011;4919;48.792;9.202;2022-09-09T07:56:54;2.30;;;2.10;;
9759;SDS011;4919;48.792;9.202;2022-09-09T07:59:24;2.53;;;2.30;;
9759;SDS011;4919;48.792;9.202;2022-09-09T08:01:53;3.53;;;2.23;;
9759;SDS011;4919;48.792;9.202;2022-09-09T08:04:24;2.90;;;2.00;;
9759;SDS011;4919;48.792;9.202;2022-09-09T08:06:54;2.47;;;2.10;;
9759;SDS011;4919;48.792;9.202;2022-09-09T08:09:25;3.43;;;1.90;;
9759;SDS011;4919;48.792;9.202;2022-09-09T08:12:15;2.10;;;1.80;;
9759;SDS011;4919;48.792;9.202;2022-09-09T08:14:43;4.67;;;2.07;;
9759;SDS011;4919;48.792;9.202;2022-09-09T08:17:09;3.17;;;2.03;;
9759;SDS011;4919;48.792;9.202;2022-09-09T08:19:37;2.53;;;2.17;;
9759;SDS011;4919;48.792;9.202;2022-09-09T08:22:09;2.63;;;2.23;;
9759;SDS011;4919;48.792;9.202;2022-09-09T08:24:38;2.00;;;1.80;;
9759;SDS011;4919;48.792;9.202;2022-09-09T08:27:06;1.77;;;1.60;;
9759;SDS011;4919;48.792;9.202;2022-09-09T08:29:33;2.83;;;1.90;;
9759;SDS011;4919;48.792;9.202;2022-09-09T08:32:00;3.57;;;2.03;;
9759;SDS011;4919;48.792;9.202;2022-09-09T08:34:28;3.07;;;2.00;;
9759;SDS011;4919;48.792;9.202;2022-09-09T08:36:59;2.97;;;1.80;;
9759;SDS011;4919;48.792;9.202;2022-09-09T08:39:34;1.97;;;1.83;;
9759;SDS011;4919;48.792;9.202;2022-09-09T08:42:11;3.23;;;2.00;;
9759;SDS011;4919;48.792;9.202;2022-09-09T08:47:35;1.90;;;1.80;;
9759;SDS011;4919;48.792;9.202;2022-09-09T08:53:21;2.20;;;2.00;;
9759;SDS011;4919;48.792;9.202;2022-09-09T08:55:54;2.00;;;1.80;;
9759;SDS011;4919;48.792;9.202;2022-09-09T08:58:34;2.50;;;1.87;;
9759;SDS011;4919;48.792;9.202;2022-09-09T09:09:30;2.93;;;1.90;;
9759;SDS011;4919;48.792;9.202;2022-09-09T09:12:06;5.30;;;2.00;;
9759;SDS011;4919;48.792;9.202;2022-09-09T09:14:41;2.77;;;1.67;;
9759;SDS011;4919;48.792;9.202;2022-09-09T09:17:13;1.93;;;1.70;;
9759;SDS011;4919;48.792;9.202;2022-09-09T09:19:42;2.43;;;1.67;;
9759;SDS011;4919;48.792;9.202;2022-09-09T09:27:13;2.50;;;1.70;;
9759;SDS011;4919;48.792;9.202;2022-09-09T09:29:47;2.10;;;1.60;;
9759;SDS011;4919;48.792;9.202;2022-09-09T09:32:37;1.50;;;1.40;;
9759;SDS011;4919;48.792;9.202;2022-09-09T09:35:09;2.73;;;1.50;;
9759;SDS011;4919;48.792;9.202;2022-09-09T09:37:41;3.20;;;1.70;;
9759;SDS011;4919;48.792;9.202;2022-09-09T09:40:31;3.23;;;1.80;;
9759;SDS011;4919;48.792;9.202;2022-09-09T09:42:59;3.13;;;1.83;;
9759;SDS011;4919;48.792;9.202;2022-09-09T09:45:31;2.83;;;1.77;;
9759;SDS011;4919;48.792;9.202;2022-09-09T09:48:03;1.93;;;1.53;;
9759;SDS011;4919;48.792;9.202;2022-09-09T09:50:35;2.67;;;1.70;;
9759;SDS011;4919;48.792;9.202;2022-09-09T09:53:25;2.30;;;1.57;;
9759;SDS011;4919;48.792;9.202;2022-09-09T09:58:25;3.23;;;1.60;;
9759;SDS011;4919;48.792;9.202;2022-09-09T10:00:54;1.87;;;1.60;;
9759;SDS011;4919;48.792;9.202;2022-09-09T10:03:31;3.53;;;1.70;;
9759;SDS011;4919;48.792;9.202;2022-09-09T10:06:05;2.47;;;1.50;;
9759;SDS011;4919;48.792;9.202;2022-09-09T10:08:33;3.10;;;1.70;;
9759;SDS011;4919;48.792;9.202;2022-09-09T10:14:04;2.80;;;1.60;;
9759;SDS011;4919;48.792;9.202;2022-09-09T10:16:58;1.50;;;1.40;;
9759;SDS011;4919;48.792;9.202;2022-09-09T10:19:34;3.83;;;1.80;;
9759;SDS011;4919;48.792;9.202;2022-09-09T10:30:19;1.57;;;1.47;;
9759;SDS011;4919;48.792;9.202;2022-09-09T10:32:49;2.33;;;1.60;;
9759;SDS011;4919;48.792;9.202;2022-09-09T10:35:24;1.97;;;1.50;;
9759;SDS011;4919;48.792;9.202;2022-09-09T10:40:46;2.13;;;1.50;;
9759;SDS011;4919;48.792;9.202;2022-09-09T10:51:29;1.83;;;1.40;;
9759;SDS011;4919;48.792;9.202;2022-09-09T10:54:24;2.73;;;1.50;;
9759;SDS011;4919;48.792;9.202;2022-09-09T10:57:36;2.20;;;1.50;;
9759;SDS011;4919;48.792;9.202;2022-09-09T11:00:19;2.13;;;1.30;;
9759;SDS011;4919;48.792;9.202;2022-09-09T11:02:55;2.23;;;1.60;;
9759;SDS011;4919;48.792;9.202;2022-09-09T11:07:58;2.50;;;1.50;;
9759;SDS011;4919;48.792;9.202;2022-09-09T11:13:52;1.57;;;1.33;;
9759;SDS011;4919;48.792;9.202;2022-09-09T11:15:59;2.73;;;1.33;;
9759;SDS011;4919;48.792;9.202;2022-09-09T11:18:31;2.00;;;1.30;;
9759;SDS011;4919;48.792;9.202;2022-09-09T11:21:05;2.20;;;1.67;;
9759;SDS011;4919;48.792;9.202;2022-09-09T11:23:40;2.07;;;1.30;;
9759;SDS011;4919;48.792;9.202;2022-09-09T11:26:14;1.40;;;1.10;;
9759;SDS011;4919;48.792;9.202;2022-09-09T11:29:01;2.40;;;1.40;;
9759;SDS011;4919;48.792;9.202;2022-09-09T11:31:44;3.53;;;1.53;;
9759;SDS011;4919;48.792;9.202;2022-09-09T11:43:12;1.07;;;1.07;;
9759;SDS011;4919;48.792;9.202;2022-09-09T11:45:49;2.10;;;1.33;;
9759;SDS011;4919;48.792;9.202;2022-09-09T11:48:30;1.43;;;1.20;;
9759;SDS011;4919;48.792;9.202;2022-09-09T11:51:10;2.10;;;1.40;;
9759;SDS011;4919;48.792;9.202;2022-09-09T11:53:49;2.53;;;1.30;;
9759;SDS011;4919;48.792;9.202;2022-09-09T11:56:43;1.23;;;1.03;;
9759;SDS011;4919;48.792;9.202;2022-09-09T11:59:19;1.57;;;1.10;;
9759;SDS011;4919;48.792;9.202;2022-09-09T12:01:57;1.43;;;1.10;;
9759;SDS011;4919;48.792;9.202;2022-09-09T12:04:42;2.33;;;1.30;;
9759;SDS011;4919;48.792;9.202;2022-09-09T12:10:26;2.00;;;1.13;;
9759;SDS011;4919;48.792;9.202;2022-09-09T12:12:53;1.13;;;1.10;;
9759;SDS011;4919;48.792;9.202;2022-09-09T12:15:25;1.03;;;1.00;;
9759;SDS011;4919;48.792;9.202;2022-09-09T12:17:56;1.10;;;1.00;;
9759;SDS011;4919;48.792;9.202;2022-09-09T12:20:35;1.40;;;1.10;;
9759;SDS011;4919;48.792;9.202;2022-09-09T12:28:22;2.00;;;1.20;;
9759;SDS011;4919;48.792;9.202;2022-09-09T12:30:58;2.40;;;1.07;;
9759;SDS011;4919;48.792;9.202;2022-09-09T12:33:48;1.97;;;1.00;;
9759;SDS011;4919;48.792;9.202;2022-09-09T12:36:22;1.57;;;1.10;;
9759;SDS011;4919;48.792;9.202;2022-09-09T12:38:53;3.23;;;1.40;;
9759;SDS011;4919;48.792;9.202;2022-09-09T12:41:25;1.30;;;1.07;;
9759;SDS011;4919;48.792;9.202;2022-09-09T12:44:09;1.10;;;1.00;;
9759;SDS011;4919;48.792;9.202;2022-09-09T12:46:38;1.10;;;1.00;;
9759;SDS011;4919;48.792;9.202;2022-09-09T12:52:19;1.20;;;1.00;;
9759;SDS011;4919;48.792;9.202;2022-09-09T12:54:47;1.90;;;1.10;;
9759;SDS011;4919;48.792;9.202;2022-09-09T12:57:17;2.10;;;1.37;;
9759;SDS011;4919;48.792;9.202;2022-09-09T12:59:44;1.23;;;1.00;;
9759;SDS011;4919;48.792;9.202;2022-09-09T13:02:24;1.30;;;1.20;;
9759;SDS011;4919;48.792;9.202;2022-09-09T13:04:53;1.40;;;1.10;;
9759;SDS011;4919;48.792;9.202;2022-09-09T13:07:21;1.57;;;1.10;;
9759;SDS011;4919;48.792;9.202;2022-09-09T13:09:48;2.43;;;1.10;;
9759;SDS011;4919;48.792;9.202;2022-09-09T13:12:16;1.77;;;1.20;;
9759;SDS011;4919;48.792;9.202;2022-09-09T13:14:52;1.87;;;1.17;;
9759;SDS011;4919;48.792;9.202;2022-09-09T13:17:26;2.23;;;1.27;;
9759;SDS011;4919;48.792;9.202;2022-09-09T13:19:57;1.30;;;1.10;;
9759;SDS011;4919;48.792;9.202;2022-09-09T13:22:29;2.37;;;1.30;;
9759;SDS011;4919;48.792;9.202;2022-09-09T13:27:38;1.83;;;1.20;;
9759;SDS011;4919;48.792;9.202;2022-09-09T13:30:24;1.70;;;1.07;;
9759;SDS011;4919;48.792;9.202;2022-09-09T13:35:47;1.63;;;1.27;;
9759;SDS011;4919;48.792;9.202;2022-09-09T13:38:16;1.87;;;1.27;;
9759;SDS011;4919;48.792;9.202;2022-09-09T13:40:56;2.07;;;1.30;;
9759;SDS011;4919;48.792;9.202;2022-09-09T13:43:34;1.43;;;1.23;;
9759;SDS011;4919;48.792;9.202;2022-09-09T13:51:41;2.53;;;1.20;;
9759;SDS011;4919;48.792;9.202;2022-09-09T13:54:13;2.17;;;1.37;;
9759;SDS011;4919;48.792;9.202;2022-09-09T13:56:42;1.57;;;1.20;;
9759;SDS011;4919;48.792;9.202;2022-09-09T13:59:11;1.67;;;1.10;;
9759;SDS011;4919;48.792;9.202;2022-09-09T14:01:39;2.03;;;1.20;;
9759;SDS011;4919;48.792;9.202;2022-09-09T14:04:07;3.00;;;1.20;;
9759;SDS011;4919;48.792;9.202;2022-09-09T14:06:38;2.17;;;1.20;;
9759;SDS011;4919;48.792;9.202;2022-09-09T14:09:06;1.80;;;1.10;;
9759;SDS011;4919;48.792;9.202;2022-09-09T14:11:34;2.83;;;1.40;;
9759;SDS011;4919;48.792;9.202;2022-09-09T14:14:01;2.67;;;1.40;;
9759;SDS011;4919;48.792;9.202;2022-09-09T14:16:28;3.17;;;1.67;;
9759;SDS011;4919;48.792;9.202;2022-09-09T14:18:55;2.50;;;1.50;;
9759;SDS011;4919;48.792;9.202;2022-09-09T14:21:23;2.37;;;1.50;;
9759;SDS011;4919;48.792;9.202;2022-09-09T14:23:50;1.40;;;1.30;;
9759;SDS011;4919;48.792;9.202;2022-09-09T14:26:19;2.93;;;1.60;;
9759;SDS011;4919;48.792;9.202;2022-09-09T14:28:47;2.03;;;1.40;;
9759;SDS011;4919;48.792;9.202;2022-09-09T14:31:21;4.30;;;1.63;;
9759;SDS011;4919;48.792;9.202;2022-09-09T14:33:49;4.90;;;1.57;;
9759;SDS011;4919;48.792;9.202;2022-09-09T14:36:17;2.13;;;1.40;;
9759;SDS011;4919;48.792;9.202;2022-09-09T14:38:43;2.40;;;1.17;;
9759;SDS011;4919;48.792;9.202;2022-09-09T14:41:11;2.90;;;1.30;;
9759;SDS011;4919;48.792;9.202;2022-09-09T14:43:39;3.00;;;1.40;;
9759;SDS011;4919;48.792;9.202;2022-09-09T14:46:07;1.83;;;1.50;;
9759;SDS011;4919;48.792;9.202;2022-09-09T14:48:35;2.03;;;1.47;;
9759;SDS011;4919;48.792;9.202;2022-09-09T14:51:09;1.97;;;1.07;;
9759;SDS011;4919;48.792;9.202;2022-09-09T14:53:36;1.33;;;1.20;;
9759;SDS011;4919;48.792;9.202;2022-09-09T14:56:14;1.30;;;1.13;;
9759;SDS011;4919;48.792;9.202;2022-09-09T14:58:42;1.20;;;0.90;;
9759;SDS011;4919;48.792;9.202;2022-09-09T15:01:11;1.40;;;1.30;;
9759;SDS011;4919;48.792;9.202;2022-09-09T15:03:40;0.90;;;0.90;;
9759;SDS011;4919;48.792;9.202;2022-09-09T15:06:08;2.13;;;1.27;;
9759;SDS011;4919;48.792;9.202;2022-09-09T15:08:37;1.33;;;1.03;;
9759;SDS011;4919;48.792;9.202;2022-09-09T15:11:08;1.10;;;1.00;;
9759;SDS011;4919;48.792;9.202;2022-09-09T15:13:37;1.93;;;1.10;;
9759;SDS011;4919;48.792;9.202;2022-09-09T15:16:06;1.30;;;1.10;;
9759;SDS011;4919;48.792;9.202;2022-09-09T15:18:38;1.63;;;1.23;;
9759;SDS011;4919;48.792;9.202;2022-09-09T15:21:09;1.10;;;1.00;;
9759;SDS011;4919;48.792;9.202;2022-09-09T15:23:37;1.57;;;1.20;;
9759;SDS011;4919;48.792;9.202;2022-09-09T15:26:04;1.27;;;1.00;;
9759;SDS011;4919;48.792;9.202;2022-09-09T15:28:32;1.13;;;1.00;;
9759;SDS011;4919;48.792;9.202;2022-09-09T15:31:09;1.30;;;1.00;;
9759;SDS011;4919;48.792;9.202;2022-09-09T15:33:53;1.30;;;1.00;;
9759;SDS011;4919;48.792;9.202;2022-09-09T15:36:38;1.60;;;1.20;;
9759;SDS011;4919;48.792;9.202;2022-09-09T15:39:12;1.93;;;1.20;;
9759;SDS011;4919;48.792;9.202;2022-09-09T15:41:47;1.47;;;1.30;;
9759;SDS011;4919;48.792;9.202;2022-09-09T15:44:14;1.70;;;1.20;;
9759;SDS011;4919;48.792;9.202;2022-09-09T15:46:42;1.37;;;1.10;;
9759;SDS011;4919;48.792;9.202;2022-09-09T15:51:37;1.43;;;1.10;;
9759;SDS011;4919;48.792;9.202;2022-09-09T15:54:10;1.20;;;1.00;;
9759;SDS011;4919;48.792;9.202;2022-09-09T15:56:38;1.60;;;1.20;;
9759;SDS011;4919;48.792;9.202;2022-09-09T15:59:06;1.23;;;1.13;;
9759;SDS011;4919;48.792;9.202;2022-09-09T16:01:33;1.47;;;1.20;;
9759;SDS011;4919;48.792;9.202;2022-09-09T16:04:01;3.53;;;1.50;;
9759;SDS011;4919;48.792;9.202;2022-09-09T16:06:29;2.73;;;1.27;;
9759;SDS011;4919;48.792;9.202;2022-09-09T16:08:56;1.03;;;1.00;;
9759;SDS011;4919;48.792;9.202;2022-09-09T16:11:26;1.60;;;1.10;;
9759;SDS011;4919;48.792;9.202;2022-09-09T16:13:55;1.33;;;1.10;;
9759;SDS011;4919;48.792;9.202;2022-09-09T16:16:23;1.23;;;1.10;;
9759;SDS011;4919;48.792;9.202;2022-09-09T16:18:52;1.47;;;0.93;;
9759;SDS011;4919;48.792;9.202;2022-09-09T16:21:28;2.33;;;0.93;;
9759;SDS011;4919;48.792;9.202;2022-09-09T16:23:57;1.37;;;1.10;;
9759;SDS011;4919;48.792;9.202;2022-09-09T16:26:26;1.63;;;0.93;;
9759;SDS011;4919;48.792;9.202;2022-09-09T16:28:54;1.47;;;1.20;;
9759;SDS011;4919;48.792;9.202;2022-09-09T16:31:22;1.50;;;1.40;;
9759;SDS011;4919;48.792;9.202;2022-09-09T16:33:51;1.47;;;1.00;;
9759;SDS011;4919;48.792;9.202;2022-09-09T16:36:22;1.60;;;1.23;;
9759;SDS011;4919;48.792;9.202;2022-09-09T16:38:57;1.70;;;1.20;;
9759;SDS011;4919;48.792;9.202;2022-09-09T16:41:26;2.00;;;1.13;;
9759;SDS011;4919;48.792;9.202;2022-09-09T16:43:55;3.57;;;1.20;;
9759;SDS011;4919;48.792;9.202;2022-09-09T16:46:23;1.40;;;1.10;;
9759;SDS011;4919;48.792;9.202;2022-09-09T16:48:51;1.50;;;1.00;;
9759;SDS011;4919;48.792;9.202;2022-09-09T16:51:26;1.90;;;1.10;;
9759;SDS011;4919;48.792;9.202;2022-09-09T16:53:54;1.57;;;1.13;;
9759;SDS011;4919;48.792;9.202;2022-09-09T16:56:24;2.20;;;1.27;;
9759;SDS011;4919;48.792;9.202;2022-09-09T16:58:56;1.57;;;1.00;;
9759;SDS011;4919;48.792;9.202;2022-09-09T17:01:24;1.20;;;1.10;;
9759;SDS011;4919;48.792;9.202;2022-09-09T17:03:53;0.87;;;0.87;;
9759;SDS011;4919;48.792;9.202;2022-09-09T17:06:27;1.00;;;0.90;;
9759;SDS011;4919;48.792;9.202;2022-09-09T17:08:56;1.77;;;1.00;;
9759;SDS011;4919;48.792;9.202;2022-09-09T17:11:24;2.20;;;1.00;;
9759;SDS011;4919;48.792;9.202;2022-09-09T17:13:51;1.10;;;1.00;;
9759;SDS011;4919;48.792;9.202;2022-09-09T17:16:21;2.93;;;1.10;;
9759;SDS011;4919;48.792;9.202;2022-09-09T17:18:50;0.93;;;0.90;;
9759;SDS011;4919;48.792;9.202;2022-09-09T17:21:19;1.63;;;1.00;;
9759;SDS011;4919;48.792;9.202;2022-09-09T17:23:47;1.43;;;1.10;;
9759;SDS011;4919;48.792;9.202;2022-09-09T17:26:16;1.10;;;1.00;;
9759;SDS011;4919;48.792;9.202;2022-09-09T17:28:45;1.03;;;0.93;;
9759;SDS011;4919;48.792;9.202;2022-09-09T17:31:12;1.77;;;1.10;;
9759;SDS011;4919;48.792;9.202;2022-09-09T17:33:43;1.40;;;1.10;;
9759;SDS011;4919;48.792;9.202;2022-09-09T17:36:16;1.73;;;1.00;;
9759;SDS011;4919;48.792;9.202;2022-09-09T17:38:44;9.13;;;1.20;;
9759;SDS011;4919;48.792;9.202;2022-09-09T17:41:16;2.07;;;1.20;;
9759;SDS011;4919;48.792;9.202;2022-09-09T17:43:45;2.03;;;1.20;;